sensor_id;sensor_type;location;lat;lon;timestamp;pressure;altitude;pressure_sealevel;temperature;humidity
7335;BME280;3708;42.632;23.378;2023-03-23T00:00:31;94266.09;;;9.90;68.47
7335;BME280;3708;42.632;23.378;2023-03-23T00:02:58;94261.50;;;9.87;67.25
7335;BME280;3708;42.632;23.378;2023-03-23T00:05:25;94257.19;;;9.91;66.70
7335;BME280;3708;42.632;23.378;2023-03-23T00:07:54;94257.19;;;9.91;65.97
7335;BME280;3708;42.632;23.378;2023-03-23T00:10:21;94250.31;;;10.08;65.56
7335;BME280;3708;42.632;23.378;2023-03-23T00:12:51;94257.44;;;9.98;64.90
7335;BME280;3708;42.632;23.378;2023-03-23T00:15:18;94252.66;;;10.09;64.81
7335;BME280;3708;42.632;23.378;2023-03-23T00:17:44;94253.25;;;10.15;64.36
7335;BME280;3708;42.632;23.378;2023-03-23T00:20:11;94267.91;;;10.16;63.80
7335;BME280;3708;42.632;23.378;2023-03-23T00:22:38;94260.97;;;10.40;63.78
7335;BME280;3708;42.632;23.378;2023-03-23T00:25:07;94263.44;;;10.45;63.59
7335;BME280;3708;42.632;23.378;2023-03-23T00:27:34;94269.06;;;10.56;63.24
7335;BME280;3708;42.632;23.378;2023-03-23T00:30:03;94276.06;;;10.43;62.75
7335;BME280;3708;42.632;23.378;2023-03-23T00:32:30;94277.38;;;10.58;62.32
7335;BME280;3708;42.632;23.378;2023-03-23T00:34:57;94272.84;;;10.67;62.21
7335;BME280;3708;42.632;23.378;2023-03-23T00:37:25;94275.72;;;10.74;61.87
7335;BME280;3708;42.632;23.378;2023-03-23T00:39:51;94282.44;;;10.63;61.21
7335;BME280;3708;42.632;23.378;2023-03-23T00:42:23;94284.84;;;10.68;61.50
7335;BME280;3708;42.632;23.378;2023-03-23T00:44:50;94277.44;;;10.70;61.21
7335;BME280;3708;42.632;23.378;2023-03-23T00:47:20;94292.81;;;10.80;60.97
7335;BME280;3708;42.632;23.378;2023-03-23T00:49:48;94284.63;;;10.82;60.50
7335;BME280;3708;42.632;23.378;2023-03-23T00:52:17;94289.75;;;10.78;60.09
7335;BME280;3708;42.632;23.378;2023-03-23T00:54:44;94289.53;;;10.83;59.65
7335;BME280;3708;42.632;23.378;2023-03-23T00:57:11;94293.06;;;10.87;59.77
7335;BME280;3708;42.632;23.378;2023-03-23T00:59:38;94294.44;;;10.64;59.71
7335;BME280;3708;42.632;23.378;2023-03-23T01:02:05;94299.22;;;10.62;59.82
7335;BME280;3708;42.632;23.378;2023-03-23T01:04:33;94291.38;;;10.62;60.13
7335;BME280;3708;42.632;23.378;2023-03-23T01:07:02;94296.16;;;10.60;60.21
7335;BME280;3708;42.632;23.378;2023-03-23T01:09:30;94289.19;;;10.64;60.19
7335;BME280;3708;42.632;23.378;2023-03-23T01:11:57;94285.13;;;10.75;59.71
7335;BME280;3708;42.632;23.378;2023-03-23T01:14:23;94288.03;;;10.53;59.77
7335;BME280;3708;42.632;23.378;2023-03-23T01:16:52;94289.56;;;10.54;59.77
7335;BME280;3708;42.632;23.378;2023-03-23T01:19:18;94289.97;;;10.64;59.85
7335;BME280;3708;42.632;23.378;2023-03-23T01:21:47;94281.63;;;10.71;59.76
7335;BME280;3708;42.632;23.378;2023-03-23T01:24:13;94286.13;;;10.62;59.69
7335;BME280;3708;42.632;23.378;2023-03-23T01:26:40;94285.31;;;10.70;59.79
7335;BME280;3708;42.632;23.378;2023-03-23T01:29:07;94282.16;;;10.56;59.97
7335;BME280;3708;42.632;23.378;2023-03-23T01:31:34;94278.72;;;10.64;60.14
7335;BME280;3708;42.632;23.378;2023-03-23T01:34:03;94273.41;;;10.52;60.54
7335;BME280;3708;42.632;23.378;2023-03-23T01:36:30;94268.63;;;10.54;61.19
7335;BME280;3708;42.632;23.378;2023-03-23T01:39:00;94267.22;;;10.56;61.79
7335;BME280;3708;42.632;23.378;2023-03-23T01:41:28;94266.28;;;10.52;62.88
7335;BME280;3708;42.632;23.378;2023-03-23T01:43:58;94260.50;;;10.67;63.39
7335;BME280;3708;42.632;23.378;2023-03-23T01:46:27;94258.53;;;10.85;63.33
7335;BME280;3708;42.632;23.378;2023-03-23T01:48:55;94259.44;;;10.89;63.37
7335;BME280;3708;42.632;23.378;2023-03-23T01:51:24;94258.94;;;11.16;63.28
7335;BME280;3708;42.632;23.378;2023-03-23T01:53:55;94260.78;;;10.74;64.31
7335;BME280;3708;42.632;23.378;2023-03-23T01:56:28;94259.00;;;10.87;64.22
7335;BME280;3708;42.632;23.378;2023-03-23T01:58:58;94251.06;;;10.75;64.44
7335;BME280;3708;42.632;23.378;2023-03-23T02:01:26;94251.66;;;11.01;64.10
7335;BME280;3708;42.632;23.378;2023-03-23T02:03:55;94254.47;;;10.96;63.51
7335;BME280;3708;42.632;23.378;2023-03-23T02:06:23;94248.19;;;10.68;64.44
7335;BME280;3708;42.632;23.378;2023-03-23T02:08:51;94249.47;;;10.83;64.57
7335;BME280;3708;42.632;23.378;2023-03-23T02:11:20;94251.63;;;10.60;64.38
7335;BME280;3708;42.632;23.378;2023-03-23T02:13:49;94246.03;;;10.91;64.52
7335;BME280;3708;42.632;23.378;2023-03-23T02:16:23;94256.09;;;11.21;63.51
7335;BME280;3708;42.632;23.378;2023-03-23T02:18:58;94258.53;;;11.26;63.07
7335;BME280;3708;42.632;23.378;2023-03-23T02:22:00;94261.22;;;11.38;62.28
7335;BME280;3708;42.632;23.378;2023-03-23T02:24:47;94260.81;;;11.48;61.96
7335;BME280;3708;42.632;23.378;2023-03-23T02:27:25;94254.91;;;11.51;61.39
7335;BME280;3708;42.632;23.378;2023-03-23T02:33:19;94255.38;;;11.54;61.49
7335;BME280;3708;42.632;23.378;2023-03-23T02:35:52;94248.28;;;11.66;61.16
7335;BME280;3708;42.632;23.378;2023-03-23T02:38:26;94260.03;;;11.69;60.96
7335;BME280;3708;42.632;23.378;2023-03-23T02:40:56;94254.34;;;11.79;60.78
7335;BME280;3708;42.632;23.378;2023-03-23T02:43:28;94259.16;;;11.77;60.42
7335;BME280;3708;42.632;23.378;2023-03-23T02:45:57;94265.06;;;11.74;59.66
7335;BME280;3708;42.632;23.378;2023-03-23T02:48:28;94259.25;;;11.68;59.98
7335;BME280;3708;42.632;23.378;2023-03-23T02:50:57;94267.81;;;11.77;59.73
7335;BME280;3708;42.632;23.378;2023-03-23T02:53:26;94265.63;;;11.79;59.53
7335;BME280;3708;42.632;23.378;2023-03-23T02:55:55;94277.00;;;11.63;59.03
7335;BME280;3708;42.632;23.378;2023-03-23T02:58:24;94275.94;;;11.64;59.32
7335;BME280;3708;42.632;23.378;2023-03-23T03:00:51;94277.28;;;11.70;59.32
7335;BME280;3708;42.632;23.378;2023-03-23T03:03:23;94287.22;;;11.64;58.91
7335;BME280;3708;42.632;23.378;2023-03-23T03:05:57;94289.38;;;11.62;58.74
7335;BME280;3708;42.632;23.378;2023-03-23T03:08:34;94303.03;;;11.56;58.61
7335;BME280;3708;42.632;23.378;2023-03-23T03:11:07;94298.38;;;11.40;58.79
7335;BME280;3708;42.632;23.378;2023-03-23T03:13:44;94295.56;;;11.04;58.82
7335;BME280;3708;42.632;23.378;2023-03-23T03:16:19;94309.94;;;10.98;59.08
7335;BME280;3708;42.632;23.378;2023-03-23T03:18:54;94313.66;;;10.97;58.90
7335;BME280;3708;42.632;23.378;2023-03-23T03:21:27;94302.00;;;10.57;59.12
7335;BME280;3708;42.632;23.378;2023-03-23T03:23:56;94317.28;;;10.55;59.04
7335;BME280;3708;42.632;23.378;2023-03-23T03:26:27;94307.16;;;10.45;59.04
7335;BME280;3708;42.632;23.378;2023-03-23T03:28:56;94317.88;;;10.23;58.73
7335;BME280;3708;42.632;23.378;2023-03-23T03:31:26;94315.50;;;10.01;58.72
7335;BME280;3708;42.632;23.378;2023-03-23T03:33:54;94314.47;;;9.76;59.20
7335;BME280;3708;42.632;23.378;2023-03-23T03:36:26;94312.81;;;9.54;59.83
7335;BME280;3708;42.632;23.378;2023-03-23T03:39:00;94310.78;;;9.51;60.58
7335;BME280;3708;42.632;23.378;2023-03-23T03:41:31;94311.88;;;9.59;60.42
7335;BME280;3708;42.632;23.378;2023-03-23T03:43:58;94311.25;;;9.53;61.00
7335;BME280;3708;42.632;23.378;2023-03-23T03:46:24;94308.97;;;9.43;61.57
7335;BME280;3708;42.632;23.378;2023-03-23T03:48:55;94313.25;;;9.56;61.66
7335;BME280;3708;42.632;23.378;2023-03-23T03:51:21;94307.53;;;9.71;61.43
7335;BME280;3708;42.632;23.378;2023-03-23T03:53:50;94312.44;;;9.73;61.76
7335;BME280;3708;42.632;23.378;2023-03-23T03:56:17;94306.91;;;9.83;61.38
7335;BME280;3708;42.632;23.378;2023-03-23T03:58:45;94305.22;;;9.78;61.27
7335;BME280;3708;42.632;23.378;2023-03-23T04:01:13;94304.88;;;9.88;61.03
7335;BME280;3708;42.632;23.378;2023-03-23T04:03:41;94304.59;;;9.81;61.23
7335;BME280;3708;42.632;23.378;2023-03-23T04:06:09;94299.50;;;9.93;61.08
7335;BME280;3708;42.632;23.378;2023-03-23T04:08:38;94304.25;;;10.00;61.05
7335;BME280;3708;42.632;23.378;2023-03-23T04:11:08;94301.16;;;10.07;61.17
7335;BME280;3708;42.632;23.378;2023-03-23T04:13:36;94298.66;;;10.19;60.95
7335;BME280;3708;42.632;23.378;2023-03-23T04:16:03;94295.72;;;10.20;60.59
7335;BME280;3708;42.632;23.378;2023-03-23T04:18:31;94299.22;;;10.33;60.45
7335;BME280;3708;42.632;23.378;2023-03-23T04:20:59;94301.72;;;10.21;60.43
7335;BME280;3708;42.632;23.378;2023-03-23T04:23:27;94302.06;;;10.19;60.54
7335;BME280;3708;42.632;23.378;2023-03-23T04:26:05;94302.16;;;10.31;60.08
7335;BME280;3708;42.632;23.378;2023-03-23T04:28:41;94307.41;;;10.23;60.32
7335;BME280;3708;42.632;23.378;2023-03-23T04:31:08;94305.69;;;10.27;60.23
7335;BME280;3708;42.632;23.378;2023-03-23T04:33:38;94306.50;;;10.19;60.33
7335;BME280;3708;42.632;23.378;2023-03-23T04:36:06;94303.13;;;10.10;60.47
7335;BME280;3708;42.632;23.378;2023-03-23T04:38:34;94303.34;;;9.96;61.14
7335;BME280;3708;42.632;23.378;2023-03-23T04:41:01;94306.38;;;10.07;60.89
7335;BME280;3708;42.632;23.378;2023-03-23T04:43:28;94299.59;;;10.06;61.28
7335;BME280;3708;42.632;23.378;2023-03-23T04:45:58;94298.06;;;10.13;61.16
7335;BME280;3708;42.632;23.378;2023-03-23T04:48:29;94304.22;;;10.09;61.30
7335;BME280;3708;42.632;23.378;2023-03-23T04:51:00;94301.41;;;10.22;60.88
7335;BME280;3708;42.632;23.378;2023-03-23T04:53:28;94298.78;;;10.31;60.74
7335;BME280;3708;42.632;23.378;2023-03-23T04:55:55;94303.81;;;10.36;60.70
7335;BME280;3708;42.632;23.378;2023-03-23T04:58:22;94306.06;;;10.46;60.60
7335;BME280;3708;42.632;23.378;2023-03-23T05:00:50;94315.25;;;10.60;60.31
7335;BME280;3708;42.632;23.378;2023-03-23T05:03:19;94314.41;;;10.77;60.38
7335;BME280;3708;42.632;23.378;2023-03-23T05:05:48;94317.28;;;10.55;60.43
7335;BME280;3708;42.632;23.378;2023-03-23T05:08:20;94323.25;;;10.64;60.54
7335;BME280;3708;42.632;23.378;2023-03-23T05:10:51;94318.38;;;10.54;60.54
7335;BME280;3708;42.632;23.378;2023-03-23T05:13:19;94320.97;;;10.83;60.92
7335;BME280;3708;42.632;23.378;2023-03-23T05:15:55;94318.50;;;10.87;60.74
7335;BME280;3708;42.632;23.378;2023-03-23T05:18:31;94324.16;;;10.97;60.32
7335;BME280;3708;42.632;23.378;2023-03-23T05:23:53;94331.56;;;11.16;59.31
7335;BME280;3708;42.632;23.378;2023-03-23T05:26:22;94330.44;;;11.25;59.13
7335;BME280;3708;42.632;23.378;2023-03-23T05:28:57;94335.41;;;11.18;58.25
7335;BME280;3708;42.632;23.378;2023-03-23T05:31:29;94334.50;;;11.14;58.76
7335;BME280;3708;42.632;23.378;2023-03-23T05:34:04;94338.91;;;10.72;59.64
7335;BME280;3708;42.632;23.378;2023-03-23T05:36:31;94340.56;;;10.56;59.84
7335;BME280;3708;42.632;23.378;2023-03-23T05:39:09;94345.78;;;10.56;60.35
7335;BME280;3708;42.632;23.378;2023-03-23T05:41:43;94355.91;;;10.29;60.95
7335;BME280;3708;42.632;23.378;2023-03-23T05:44:13;94359.25;;;10.38;61.28
7335;BME280;3708;42.632;23.378;2023-03-23T05:46:53;94359.91;;;10.64;60.77
7335;BME280;3708;42.632;23.378;2023-03-23T05:49:39;94356.94;;;10.74;60.93
7335;BME280;3708;42.632;23.378;2023-03-23T05:52:06;94364.78;;;10.74;60.69
7335;BME280;3708;42.632;23.378;2023-03-23T05:54:35;94364.00;;;10.82;60.93
7335;BME280;3708;42.632;23.378;2023-03-23T05:57:26;94358.38;;;10.92;60.69
7335;BME280;3708;42.632;23.378;2023-03-23T05:59:57;94363.19;;;10.90;60.98
7335;BME280;3708;42.632;23.378;2023-03-23T06:02:34;94362.84;;;10.92;60.93
7335;BME280;3708;42.632;23.378;2023-03-23T06:05:42;94360.19;;;11.00;59.67
7335;BME280;3708;42.632;23.378;2023-03-23T06:08:09;94356.19;;;10.73;59.78
7335;BME280;3708;42.632;23.378;2023-03-23T06:10:37;94365.91;;;10.73;59.39
7335;BME280;3708;42.632;23.378;2023-03-23T06:13:06;94367.16;;;10.21;60.40
7335;BME280;3708;42.632;23.378;2023-03-23T06:15:33;94363.94;;;10.61;60.37
7335;BME280;3708;42.632;23.378;2023-03-23T06:18:01;94360.09;;;10.88;59.59
7335;BME280;3708;42.632;23.378;2023-03-23T06:20:37;94375.34;;;10.95;59.63
7335;BME280;3708;42.632;23.378;2023-03-23T06:23:09;94363.16;;;11.19;59.34
7335;BME280;3708;42.632;23.378;2023-03-23T06:25:46;94367.00;;;11.22;58.80
7335;BME280;3708;42.632;23.378;2023-03-23T06:28:14;94366.94;;;11.30;58.95
7335;BME280;3708;42.632;23.378;2023-03-23T06:30:47;94370.00;;;11.53;58.51
7335;BME280;3708;42.632;23.378;2023-03-23T06:33:18;94373.25;;;11.50;58.96
7335;BME280;3708;42.632;23.378;2023-03-23T06:36:04;94364.94;;;11.48;59.32
7335;BME280;3708;42.632;23.378;2023-03-23T06:38:56;94369.41;;;11.89;58.57
7335;BME280;3708;42.632;23.378;2023-03-23T06:41:27;94373.41;;;12.07;58.18
7335;BME280;3708;42.632;23.378;2023-03-23T06:43:57;94377.59;;;11.75;58.37
7335;BME280;3708;42.632;23.378;2023-03-23T06:46:24;94379.53;;;11.99;58.29
7335;BME280;3708;42.632;23.378;2023-03-23T06:48:52;94380.94;;;12.29;57.73
7335;BME280;3708;42.632;23.378;2023-03-23T06:51:29;94383.69;;;12.00;57.76
7335;BME280;3708;42.632;23.378;2023-03-23T06:54:02;94385.22;;;12.01;58.16
7335;BME280;3708;42.632;23.378;2023-03-23T06:56:31;94391.88;;;12.31;57.66
7335;BME280;3708;42.632;23.378;2023-03-23T06:58:59;94392.31;;;12.45;57.22
7335;BME280;3708;42.632;23.378;2023-03-23T07:01:27;94398.50;;;12.61;55.60
7335;BME280;3708;42.632;23.378;2023-03-23T07:03:54;94393.69;;;12.63;55.79
7335;BME280;3708;42.632;23.378;2023-03-23T07:06:22;94398.19;;;12.87;55.78
7335;BME280;3708;42.632;23.378;2023-03-23T07:08:51;94396.97;;;12.96;55.71
7335;BME280;3708;42.632;23.378;2023-03-23T07:11:18;94396.75;;;12.65;57.45
7335;BME280;3708;42.632;23.378;2023-03-23T07:13:45;94392.25;;;12.66;57.38
7335;BME280;3708;42.632;23.378;2023-03-23T07:16:12;94394.78;;;12.74;57.21
7335;BME280;3708;42.632;23.378;2023-03-23T07:18:40;94394.31;;;12.60;58.18
7335;BME280;3708;42.632;23.378;2023-03-23T07:21:09;94390.72;;;12.89;56.86
7335;BME280;3708;42.632;23.378;2023-03-23T07:23:36;94395.00;;;12.93;56.87
7335;BME280;3708;42.632;23.378;2023-03-23T07:26:05;94393.91;;;12.94;56.91
7335;BME280;3708;42.632;23.378;2023-03-23T07:28:33;94395.09;;;13.33;56.47
7335;BME280;3708;42.632;23.378;2023-03-23T07:30:59;94387.63;;;13.47;56.04
7335;BME280;3708;42.632;23.378;2023-03-23T07:33:26;94394.28;;;13.57;56.14
7335;BME280;3708;42.632;23.378;2023-03-23T07:35:54;94390.91;;;13.44;56.30
7335;BME280;3708;42.632;23.378;2023-03-23T07:38:21;94393.91;;;12.94;57.71
7335;BME280;3708;42.632;23.378;2023-03-23T07:40:52;94398.19;;;13.23;57.67
7335;BME280;3708;42.632;23.378;2023-03-23T07:43:24;94402.19;;;13.57;56.73
7335;BME280;3708;42.632;23.378;2023-03-23T07:46:10;94401.19;;;13.89;56.29
7335;BME280;3708;42.632;23.378;2023-03-23T07:48:39;94408.81;;;14.06;55.56
7335;BME280;3708;42.632;23.378;2023-03-23T07:51:37;94405.44;;;14.33;54.83
7335;BME280;3708;42.632;23.378;2023-03-23T08:05:05;94424.09;;;15.18;52.20
7335;BME280;3708;42.632;23.378;2023-03-23T08:07:33;94428.75;;;15.25;51.09
7335;BME280;3708;42.632;23.378;2023-03-23T08:10:01;94426.75;;;15.03;51.76
7335;BME280;3708;42.632;23.378;2023-03-23T08:12:28;94427.91;;;15.37;51.17
7335;BME280;3708;42.632;23.378;2023-03-23T08:14:57;94430.88;;;15.51;50.27
7335;BME280;3708;42.632;23.378;2023-03-23T08:17:25;94425.13;;;15.64;49.74
7335;BME280;3708;42.632;23.378;2023-03-23T08:19:52;94431.38;;;15.41;49.90
7335;BME280;3708;42.632;23.378;2023-03-23T08:22:21;94430.31;;;15.10;50.04
7335;BME280;3708;42.632;23.378;2023-03-23T08:24:49;94423.88;;;15.43;50.40
7335;BME280;3708;42.632;23.378;2023-03-23T08:27:18;94423.97;;;15.81;49.48
7335;BME280;3708;42.632;23.378;2023-03-23T08:29:45;94424.47;;;16.06;48.33
7335;BME280;3708;42.632;23.378;2023-03-23T08:32:13;94418.22;;;16.14;47.33
7335;BME280;3708;42.632;23.378;2023-03-23T08:34:43;94422.63;;;16.48;46.57
7335;BME280;3708;42.632;23.378;2023-03-23T08:37:11;94422.09;;;16.81;45.96
7335;BME280;3708;42.632;23.378;2023-03-23T08:39:41;94419.22;;;16.89;45.80
7335;BME280;3708;42.632;23.378;2023-03-23T08:42:10;94417.53;;;17.26;45.26
7335;BME280;3708;42.632;23.378;2023-03-23T08:44:42;94413.25;;;17.71;44.24
7335;BME280;3708;42.632;23.378;2023-03-23T08:47:10;94412.81;;;17.65;42.42
7335;BME280;3708;42.632;23.378;2023-03-23T08:49:37;94415.44;;;17.62;39.52
7335;BME280;3708;42.632;23.378;2023-03-23T08:52:05;94407.34;;;17.51;36.90
7335;BME280;3708;42.632;23.378;2023-03-23T08:54:39;94412.66;;;16.19;39.12
7335;BME280;3708;42.632;23.378;2023-03-23T08:57:26;94409.97;;;16.38;39.20
7335;BME280;3708;42.632;23.378;2023-03-23T08:59:57;94418.25;;;16.55;39.18
7335;BME280;3708;42.632;23.378;2023-03-23T09:02:44;94415.75;;;16.62;39.63
7335;BME280;3708;42.632;23.378;2023-03-23T09:05:19;94417.63;;;16.85;39.54
7335;BME280;3708;42.632;23.378;2023-03-23T09:08:17;94408.47;;;17.01;39.98
7335;BME280;3708;42.632;23.378;2023-03-23T09:11:24;94418.56;;;17.18;40.76
7335;BME280;3708;42.632;23.378;2023-03-23T09:14:13;94409.66;;;17.56;39.67
7335;BME280;3708;42.632;23.378;2023-03-23T09:16:58;94408.38;;;18.02;38.45
7335;BME280;3708;42.632;23.378;2023-03-23T09:19:38;94413.22;;;18.30;38.59
7335;BME280;3708;42.632;23.378;2023-03-23T09:22:07;94408.41;;;18.39;37.88
7335;BME280;3708;42.632;23.378;2023-03-23T09:24:45;94406.31;;;17.36;38.26
7335;BME280;3708;42.632;23.378;2023-03-23T09:27:23;94410.81;;;17.32;38.00
7335;BME280;3708;42.632;23.378;2023-03-23T09:30:00;94405.09;;;17.04;38.71
7335;BME280;3708;42.632;23.378;2023-03-23T09:32:34;94406.66;;;17.09;38.65
7335;BME280;3708;42.632;23.378;2023-03-23T09:35:04;94407.88;;;17.37;38.45
7335;BME280;3708;42.632;23.378;2023-03-23T09:37:32;94413.53;;;17.36;39.30
7335;BME280;3708;42.632;23.378;2023-03-23T09:40:01;94402.34;;;17.76;36.92
7335;BME280;3708;42.632;23.378;2023-03-23T09:42:36;94403.28;;;17.90;37.28
7335;BME280;3708;42.632;23.378;2023-03-23T09:45:15;94403.59;;;17.56;37.93
7335;BME280;3708;42.632;23.378;2023-03-23T09:47:54;94400.53;;;17.53;38.52
7335;BME280;3708;42.632;23.378;2023-03-23T09:50:28;94398.28;;;17.56;37.86
7335;BME280;3708;42.632;23.378;2023-03-23T09:53:00;94396.28;;;17.75;38.35
7335;BME280;3708;42.632;23.378;2023-03-23T09:55:28;94394.53;;;17.86;37.92
7335;BME280;3708;42.632;23.378;2023-03-23T09:57:59;94393.16;;;17.66;38.10
7335;BME280;3708;42.632;23.378;2023-03-23T10:00:32;94387.09;;;17.99;36.80
7335;BME280;3708;42.632;23.378;2023-03-23T10:03:05;94395.75;;;17.63;36.86
7335;BME280;3708;42.632;23.378;2023-03-23T10:05:36;94390.81;;;17.91;36.93
7335;BME280;3708;42.632;23.378;2023-03-23T10:08:09;94390.06;;;18.23;36.33
7335;BME280;3708;42.632;23.378;2023-03-23T10:10:47;94393.59;;;18.38;37.24
7335;BME280;3708;42.632;23.378;2023-03-23T10:13:25;94390.06;;;18.23;37.53
7335;BME280;3708;42.632;23.378;2023-03-23T10:15:56;94387.38;;;18.57;36.92
7335;BME280;3708;42.632;23.378;2023-03-23T10:18:27;94381.06;;;18.72;36.14
7335;BME280;3708;42.632;23.378;2023-03-23T10:20:57;94380.19;;;19.04;35.29
7335;BME280;3708;42.632;23.378;2023-03-23T10:23:52;94384.72;;;18.20;36.67
7335;BME280;3708;42.632;23.378;2023-03-23T10:26:33;94383.63;;;18.61;36.16
7335;BME280;3708;42.632;23.378;2023-03-23T10:29:12;94381.13;;;19.26;35.27
7335;BME280;3708;42.632;23.378;2023-03-23T10:31:46;94380.81;;;18.87;35.21
7335;BME280;3708;42.632;23.378;2023-03-23T10:34:21;94383.31;;;19.14;36.25
7335;BME280;3708;42.632;23.378;2023-03-23T10:36:59;94377.94;;;19.57;35.35
7335;BME280;3708;42.632;23.378;2023-03-23T10:39:30;94375.94;;;19.44;34.49
7335;BME280;3708;42.632;23.378;2023-03-23T10:42:00;94363.69;;;19.29;35.00
7335;BME280;3708;42.632;23.378;2023-03-23T10:44:32;94382.81;;;18.97;34.40
7335;BME280;3708;42.632;23.378;2023-03-23T10:47:02;94372.50;;;19.40;33.37
7335;BME280;3708;42.632;23.378;2023-03-23T10:49:36;94364.56;;;19.43;33.22
7335;BME280;3708;42.632;23.378;2023-03-23T10:52:10;94363.16;;;19.67;33.78
7335;BME280;3708;42.632;23.378;2023-03-23T10:54:47;94373.63;;;20.18;34.01
7335;BME280;3708;42.632;23.378;2023-03-23T10:57:21;94360.41;;;20.35;33.97
7335;BME280;3708;42.632;23.378;2023-03-23T10:59:49;94372.63;;;20.86;32.94
7335;BME280;3708;42.632;23.378;2023-03-23T11:02:18;94365.44;;;21.25;32.78
7335;BME280;3708;42.632;23.378;2023-03-23T11:04:56;94356.69;;;21.07;32.54
7335;BME280;3708;42.632;23.378;2023-03-23T11:07:28;94365.78;;;20.78;32.36
7335;BME280;3708;42.632;23.378;2023-03-23T11:10:03;94362.00;;;20.89;31.61
7335;BME280;3708;42.632;23.378;2023-03-23T11:12:34;94364.22;;;20.45;33.32
7335;BME280;3708;42.632;23.378;2023-03-23T11:15:20;94360.84;;;20.73;31.80
7335;BME280;3708;42.632;23.378;2023-03-23T11:17:56;94366.16;;;21.01;31.10
7335;BME280;3708;42.632;23.378;2023-03-23T11:20:24;94357.44;;;20.83;30.99
7335;BME280;3708;42.632;23.378;2023-03-23T11:22:52;94348.31;;;21.05;30.64
7335;BME280;3708;42.632;23.378;2023-03-23T11:25:19;94340.31;;;21.01;30.95
7335;BME280;3708;42.632;23.378;2023-03-23T11:27:46;94344.50;;;20.71;30.86
7335;BME280;3708;42.632;23.378;2023-03-23T11:30:20;94336.16;;;20.83;31.48
7335;BME280;3708;42.632;23.378;2023-03-23T11:32:49;94341.44;;;20.58;30.81
7335;BME280;3708;42.632;23.378;2023-03-23T11:35:22;94334.22;;;21.01;31.58
7335;BME280;3708;42.632;23.378;2023-03-23T11:37:52;94330.75;;;21.50;32.49
7335;BME280;3708;42.632;23.378;2023-03-23T11:40:22;94317.72;;;21.80;31.99
7335;BME280;3708;42.632;23.378;2023-03-23T11:42:58;94319.13;;;22.06;29.77
7335;BME280;3708;42.632;23.378;2023-03-23T11:45:32;94321.97;;;22.43;30.11
7335;BME280;3708;42.632;23.378;2023-03-23T11:48:12;94311.13;;;22.02;31.93
7335;BME280;3708;42.632;23.378;2023-03-23T11:50:50;94314.88;;;22.19;30.55
7335;BME280;3708;42.632;23.378;2023-03-23T11:53:26;94313.97;;;22.98;29.97
7335;BME280;3708;42.632;23.378;2023-03-23T11:56:01;94311.19;;;23.53;28.57
7335;BME280;3708;42.632;23.378;2023-03-23T11:58:32;94312.91;;;23.66;28.37
7335;BME280;3708;42.632;23.378;2023-03-23T12:01:05;94301.50;;;23.96;28.14
7335;BME280;3708;42.632;23.378;2023-03-23T12:03:56;94304.31;;;24.15;27.62
7335;BME280;3708;42.632;23.378;2023-03-23T12:06:36;94310.28;;;24.27;26.76
7335;BME280;3708;42.632;23.378;2023-03-23T12:09:14;94301.94;;;24.21;26.88
7335;BME280;3708;42.632;23.378;2023-03-23T12:11:52;94300.53;;;24.13;26.87
7335;BME280;3708;42.632;23.378;2023-03-23T12:14:28;94302.84;;;23.77;27.98
7335;BME280;3708;42.632;23.378;2023-03-23T12:17:08;94293.56;;;24.19;28.22
7335;BME280;3708;42.632;23.378;2023-03-23T12:19:45;94295.59;;;24.38;26.90
7335;BME280;3708;42.632;23.378;2023-03-23T12:22:25;94298.34;;;24.84;27.52
7335;BME280;3708;42.632;23.378;2023-03-23T12:25:05;94299.06;;;24.35;26.25
7335;BME280;3708;42.632;23.378;2023-03-23T12:27:48;94303.72;;;24.31;26.87
7335;BME280;3708;42.632;23.378;2023-03-23T12:30:27;94308.94;;;24.91;25.74
7335;BME280;3708;42.632;23.378;2023-03-23T12:33:20;94294.25;;;24.76;26.08
7335;BME280;3708;42.632;23.378;2023-03-23T12:35:56;94299.22;;;24.24;26.21
7335;BME280;3708;42.632;23.378;2023-03-23T12:38:51;94302.22;;;24.00;26.51
7335;BME280;3708;42.632;23.378;2023-03-23T12:41:27;94295.84;;;24.47;25.87
7335;BME280;3708;42.632;23.378;2023-03-23T12:43:59;94299.59;;;24.80;25.61
7335;BME280;3708;42.632;23.378;2023-03-23T12:46:36;94296.03;;;24.86;25.20
7335;BME280;3708;42.632;23.378;2023-03-23T12:49:07;94299.13;;;24.58;25.52
7335;BME280;3708;42.632;23.378;2023-03-23T12:51:39;94294.50;;;24.05;26.22
7335;BME280;3708;42.632;23.378;2023-03-23T12:54:15;94282.03;;;23.92;26.04
7335;BME280;3708;42.632;23.378;2023-03-23T12:56:50;94285.88;;;24.21;26.07
7335;BME280;3708;42.632;23.378;2023-03-23T12:59:25;94283.84;;;24.55;26.93
7335;BME280;3708;42.632;23.378;2023-03-23T13:02:03;94286.81;;;24.61;25.46
7335;BME280;3708;42.632;23.378;2023-03-23T13:04:35;94284.31;;;24.50;26.18
7335;BME280;3708;42.632;23.378;2023-03-23T13:07:05;94288.72;;;24.37;27.10
7335;BME280;3708;42.632;23.378;2023-03-23T13:09:43;94279.06;;;24.93;25.23
7335;BME280;3708;42.632;23.378;2023-03-23T13:12:15;94279.19;;;24.59;25.53
7335;BME280;3708;42.632;23.378;2023-03-23T13:14:50;94272.81;;;25.23;25.46
7335;BME280;3708;42.632;23.378;2023-03-23T13:17:35;94275.69;;;25.94;25.52
7335;BME280;3708;42.632;23.378;2023-03-23T13:20:29;94268.06;;;26.44;24.74
7335;BME280;3708;42.632;23.378;2023-03-23T13:23:04;94264.78;;;26.53;24.46
7335;BME280;3708;42.632;23.378;2023-03-23T13:25:54;94267.41;;;26.57;24.23
7335;BME280;3708;42.632;23.378;2023-03-23T13:28:25;94271.16;;;26.43;24.21
7335;BME280;3708;42.632;23.378;2023-03-23T13:30:56;94264.88;;;26.98;24.38
7335;BME280;3708;42.632;23.378;2023-03-23T13:33:25;94271.19;;;27.07;23.37
7335;BME280;3708;42.632;23.378;2023-03-23T13:35:52;94265.84;;;26.91;23.22
7335;BME280;3708;42.632;23.378;2023-03-23T13:38:21;94270.59;;;26.68;23.15
7335;BME280;3708;42.632;23.378;2023-03-23T13:40:50;94267.06;;;26.71;23.46
7335;BME280;3708;42.632;23.378;2023-03-23T13:43:28;94265.56;;;26.70;23.77
7335;BME280;3708;42.632;23.378;2023-03-23T13:46:08;94267.91;;;26.68;23.97
7335;BME280;3708;42.632;23.378;2023-03-23T13:48:50;94266.81;;;26.65;24.17
7335;BME280;3708;42.632;23.378;2023-03-23T13:51:33;94257.50;;;26.70;23.82
7335;BME280;3708;42.632;23.378;2023-03-23T13:54:13;94264.75;;;26.73;23.66
7335;BME280;3708;42.632;23.378;2023-03-23T13:56:48;94254.81;;;26.70;23.60